Cusick, Washington
Current Conditions -  °F | °C
As of 2:53 PM on Friday 31 Oct 2014 (Local Time) from KDEW Reporting Station
Haze Haze  
Wind Chill: 49°   Ceiling: 800
Heat Index: 49°   Visibility: 6mi
Dew Point: 47°   Wind: 0mph
Humidity: 93%   Direction: NA
Pressure: 29.78"   Gusts: NA
Location:  48.34°N, 117.3°W
Report Text: KDEW 312153Z AUTO 00000KT 6SM BR OVC008 09/08 A2978 RMK AO2 RAE2056 SLP087 P0001 T00940083
Loading
Personal Weather Stations






























Interactive Weather Map New forecast layout! Learn more

10-Day Weather Forecast

Advertisements
Track Severe Weather on mobile